sensor_id;sensor_type;location;lat;lon;timestamp;temperature;humidity
318;DHT22;146;53.448;10.228;2023-05-07T00:01:54;10.00;1.00
318;DHT22;146;53.448;10.228;2023-05-07T00:04:24;10.00;1.00
318;DHT22;146;53.448;10.228;2023-05-07T00:06:56;10.10;1.00
318;DHT22;146;53.448;10.228;2023-05-07T00:09:23;10.10;1.00
318;DHT22;146;53.448;10.228;2023-05-07T00:11:53;10.10;1.00
318;DHT22;146;53.448;10.228;2023-05-07T00:14:27;10.10;1.00
318;DHT22;146;53.448;10.228;2023-05-07T00:16:55;10.10;1.00
318;DHT22;146;53.448;10.228;2023-05-07T00:19:24;10.10;1.00
318;DHT22;146;53.448;10.228;2023-05-07T00:21:51;10.10;1.00
318;DHT22;146;53.448;10.228;2023-05-07T00:24:21;10.10;1.00
318;DHT22;146;53.448;10.228;2023-05-07T00:26:48;10.10;1.00
318;DHT22;146;53.448;10.228;2023-05-07T00:29:20;10.10;1.00
318;DHT22;146;53.448;10.228;2023-05-07T00:31:50;10.00;1.00
318;DHT22;146;53.448;10.228;2023-05-07T00:34:26;10.00;1.00
318;DHT22;146;53.448;10.228;2023-05-07T00:36:53;10.00;1.00
318;DHT22;146;53.448;10.228;2023-05-07T00:39:26;10.00;1.00
318;DHT22;146;53.448;10.228;2023-05-07T00:41:55;10.00;1.00
318;DHT22;146;53.448;10.228;2023-05-07T00:44:22;10.00;1.00
318;DHT22;146;53.448;10.228;2023-05-07T00:46:50;10.10;1.00
318;DHT22;146;53.448;10.228;2023-05-07T00:49:18;10.10;1.00
318;DHT22;146;53.448;10.228;2023-05-07T00:51:46;10.10;1.00
318;DHT22;146;53.448;10.228;2023-05-07T00:54:16;10.10;1.00
318;DHT22;146;53.448;10.228;2023-05-07T00:56:43;10.00;1.00
318;DHT22;146;53.448;10.228;2023-05-07T00:59:10;10.10;1.00
318;DHT22;146;53.448;10.228;2023-05-07T01:01:37;10.10;1.00
318;DHT22;146;53.448;10.228;2023-05-07T01:04:08;10.10;1.00
318;DHT22;146;53.448;10.228;2023-05-07T01:06:35;10.00;1.00
318;DHT22;146;53.448;10.228;2023-05-07T01:09:01;10.00;1.00
318;DHT22;146;53.448;10.228;2023-05-07T01:11:30;10.00;1.00
318;DHT22;146;53.448;10.228;2023-05-07T01:13:58;10.00;1.00
318;DHT22;146;53.448;10.228;2023-05-07T01:16:25;10.00;1.00
318;DHT22;146;53.448;10.228;2023-05-07T01:18:52;10.10;1.00
318;DHT22;146;53.448;10.228;2023-05-07T01:21:25;10.10;1.00
318;DHT22;146;53.448;10.228;2023-05-07T01:23:59;10.00;1.00
318;DHT22;146;53.448;10.228;2023-05-07T01:26:26;10.00;1.00
318;DHT22;146;53.448;10.228;2023-05-07T01:28:56;10.00;1.00
318;DHT22;146;53.448;10.228;2023-05-07T01:31:23;10.00;1.00
318;DHT22;146;53.448;10.228;2023-05-07T01:33:56;10.00;1.00
318;DHT22;146;53.448;10.228;2023-05-07T01:36:24;10.00;1.00
318;DHT22;146;53.448;10.228;2023-05-07T01:38:52;10.00;1.00
318;DHT22;146;53.448;10.228;2023-05-07T01:41:24;10.10;1.00
318;DHT22;146;53.448;10.228;2023-05-07T01:44:00;10.10;1.00
318;DHT22;146;53.448;10.228;2023-05-07T01:46:28;10.00;1.00
318;DHT22;146;53.448;10.228;2023-05-07T01:48:55;10.00;1.00
318;DHT22;146;53.448;10.228;2023-05-07T01:51:22;10.10;1.00
318;DHT22;146;53.448;10.228;2023-05-07T01:53:52;10.00;1.00
318;DHT22;146;53.448;10.228;2023-05-07T01:56:21;10.10;1.00
318;DHT22;146;53.448;10.228;2023-05-07T01:58:48;10.20;1.00
318;DHT22;146;53.448;10.228;2023-05-07T02:01:16;10.20;1.00
318;DHT22;146;53.448;10.228;2023-05-07T02:03:43;10.30;1.00
318;DHT22;146;53.448;10.228;2023-05-07T02:06:12;10.20;1.00
318;DHT22;146;53.448;10.228;2023-05-07T02:08:41;10.20;1.00
318;DHT22;146;53.448;10.228;2023-05-07T02:11:11;10.30;1.00
318;DHT22;146;53.448;10.228;2023-05-07T02:13:43;10.30;1.00
318;DHT22;146;53.448;10.228;2023-05-07T02:16:13;10.30;1.00
318;DHT22;146;53.448;10.228;2023-05-07T02:18:46;10.40;1.00
318;DHT22;146;53.448;10.228;2023-05-07T02:21:13;10.40;1.00
318;DHT22;146;53.448;10.228;2023-05-07T02:23:42;10.40;1.00
318;DHT22;146;53.448;10.228;2023-05-07T02:26:10;10.30;1.00
318;DHT22;146;53.448;10.228;2023-05-07T02:28:36;10.40;1.00
318;DHT22;146;53.448;10.228;2023-05-07T02:31:05;10.40;1.00
318;DHT22;146;53.448;10.228;2023-05-07T02:33:32;10.30;1.00
318;DHT22;146;53.448;10.228;2023-05-07T02:36:05;10.30;1.00
318;DHT22;146;53.448;10.228;2023-05-07T02:38:33;10.30;1.00
318;DHT22;146;53.448;10.228;2023-05-07T02:41:00;10.30;1.00
318;DHT22;146;53.448;10.228;2023-05-07T02:43:27;10.20;1.00
318;DHT22;146;53.448;10.228;2023-05-07T02:46:01;10.30;1.00
318;DHT22;146;53.448;10.228;2023-05-07T02:48:29;10.20;1.00
318;DHT22;146;53.448;10.228;2023-05-07T02:50:56;10.20;1.00
318;DHT22;146;53.448;10.228;2023-05-07T02:53:23;10.20;1.00
318;DHT22;146;53.448;10.228;2023-05-07T02:55:52;10.20;1.00
318;DHT22;146;53.448;10.228;2023-05-07T02:58:18;10.20;1.00
318;DHT22;146;53.448;10.228;2023-05-07T03:00:45;10.20;1.00
318;DHT22;146;53.448;10.228;2023-05-07T03:03:12;10.10;1.00
318;DHT22;146;53.448;10.228;2023-05-07T03:05:40;10.20;1.00
318;DHT22;146;53.448;10.228;2023-05-07T03:08:08;10.20;1.00
318;DHT22;146;53.448;10.228;2023-05-07T03:10:38;10.20;1.00
318;DHT22;146;53.448;10.228;2023-05-07T03:13:05;10.10;1.00
318;DHT22;146;53.448;10.228;2023-05-07T03:15:31;10.10;1.00
318;DHT22;146;53.448;10.228;2023-05-07T03:18:01;10.10;1.00
318;DHT22;146;53.448;10.228;2023-05-07T03:20:30;10.10;1.00
318;DHT22;146;53.448;10.228;2023-05-07T03:22:58;10.00;1.00
318;DHT22;146;53.448;10.228;2023-05-07T03:25:25;9.90;1.00
318;DHT22;146;53.448;10.228;2023-05-07T03:27:52;9.90;1.00
318;DHT22;146;53.448;10.228;2023-05-07T03:30:19;9.90;1.00
318;DHT22;146;53.448;10.228;2023-05-07T03:32:46;10.00;1.00
318;DHT22;146;53.448;10.228;2023-05-07T03:35:13;10.00;1.00
318;DHT22;146;53.448;10.228;2023-05-07T03:37:40;10.00;1.00
318;DHT22;146;53.448;10.228;2023-05-07T03:40:09;10.00;1.00
318;DHT22;146;53.448;10.228;2023-05-07T03:42:37;10.00;1.00
318;DHT22;146;53.448;10.228;2023-05-07T03:45:05;10.00;1.00
318;DHT22;146;53.448;10.228;2023-05-07T03:47:32;10.10;1.00
318;DHT22;146;53.448;10.228;2023-05-07T03:49:59;10.10;1.00
318;DHT22;146;53.448;10.228;2023-05-07T03:52:25;10.10;1.00
318;DHT22;146;53.448;10.228;2023-05-07T03:54:52;10.10;1.00
318;DHT22;146;53.448;10.228;2023-05-07T03:57:26;10.10;1.00
318;DHT22;146;53.448;10.228;2023-05-07T03:59:53;10.10;1.00
318;DHT22;146;53.448;10.228;2023-05-07T04:02:20;10.10;1.00
318;DHT22;146;53.448;10.228;2023-05-07T04:04:48;10.10;1.00
318;DHT22;146;53.448;10.228;2023-05-07T04:07:18;10.10;1.00
318;DHT22;146;53.448;10.228;2023-05-07T04:09:45;10.10;1.00
318;DHT22;146;53.448;10.228;2023-05-07T04:12:15;10.10;1.00
318;DHT22;146;53.448;10.228;2023-05-07T04:14:46;10.20;1.00
318;DHT22;146;53.448;10.228;2023-05-07T04:17:15;10.20;1.00
318;DHT22;146;53.448;10.228;2023-05-07T04:19:42;10.20;1.00
318;DHT22;146;53.448;10.228;2023-05-07T04:22:10;10.20;1.00
318;DHT22;146;53.448;10.228;2023-05-07T04:24:40;10.20;1.00
318;DHT22;146;53.448;10.228;2023-05-07T04:27:07;10.20;1.00
318;DHT22;146;53.448;10.228;2023-05-07T04:29:34;10.10;1.00
318;DHT22;146;53.448;10.228;2023-05-07T04:32:02;10.10;1.00
318;DHT22;146;53.448;10.228;2023-05-07T04:34:29;10.10;1.00
318;DHT22;146;53.448;10.228;2023-05-07T04:36:58;10.10;1.00
318;DHT22;146;53.448;10.228;2023-05-07T04:39:25;10.20;1.00
318;DHT22;146;53.448;10.228;2023-05-07T04:41:52;10.10;1.00
318;DHT22;146;53.448;10.228;2023-05-07T04:44:18;10.20;1.00
318;DHT22;146;53.448;10.228;2023-05-07T04:46:45;10.20;1.00
318;DHT22;146;53.448;10.228;2023-05-07T04:49:13;10.20;1.00
318;DHT22;146;53.448;10.228;2023-05-07T04:51:43;10.20;1.00
318;DHT22;146;53.448;10.228;2023-05-07T04:54:10;10.30;1.00
318;DHT22;146;53.448;10.228;2023-05-07T04:56:43;10.20;1.00
318;DHT22;146;53.448;10.228;2023-05-07T04:59:19;10.20;1.00
318;DHT22;146;53.448;10.228;2023-05-07T05:01:46;10.20;1.00
318;DHT22;146;53.448;10.228;2023-05-07T05:04:14;10.20;1.00
318;DHT22;146;53.448;10.228;2023-05-07T05:06:44;10.30;1.00
318;DHT22;146;53.448;10.228;2023-05-07T05:09:10;10.40;1.00
318;DHT22;146;53.448;10.228;2023-05-07T05:11:37;10.40;1.00
318;DHT22;146;53.448;10.228;2023-05-07T05:14:08;10.40;1.00
318;DHT22;146;53.448;10.228;2023-05-07T05:16:35;10.30;1.00
318;DHT22;146;53.448;10.228;2023-05-07T05:19:02;10.30;1.00
318;DHT22;146;53.448;10.228;2023-05-07T05:21:31;10.40;1.00
318;DHT22;146;53.448;10.228;2023-05-07T05:23:58;10.40;1.00
318;DHT22;146;53.448;10.228;2023-05-07T05:26:25;10.40;1.00
318;DHT22;146;53.448;10.228;2023-05-07T05:28:55;10.40;1.00
318;DHT22;146;53.448;10.228;2023-05-07T05:31:21;10.50;1.00
318;DHT22;146;53.448;10.228;2023-05-07T05:33:48;10.40;1.00
318;DHT22;146;53.448;10.228;2023-05-07T05:36:21;10.40;1.00
318;DHT22;146;53.448;10.228;2023-05-07T05:38:49;10.40;1.00
318;DHT22;146;53.448;10.228;2023-05-07T05:41:16;10.40;1.00
318;DHT22;146;53.448;10.228;2023-05-07T05:43:46;10.40;1.00
318;DHT22;146;53.448;10.228;2023-05-07T05:46:12;10.30;1.00
318;DHT22;146;53.448;10.228;2023-05-07T05:48:39;10.30;1.00
318;DHT22;146;53.448;10.228;2023-05-07T05:51:06;10.40;1.00
318;DHT22;146;53.448;10.228;2023-05-07T05:53:33;10.40;1.00
318;DHT22;146;53.448;10.228;2023-05-07T05:56:01;10.40;1.00
318;DHT22;146;53.448;10.228;2023-05-07T05:58:28;10.40;1.00
318;DHT22;146;53.448;10.228;2023-05-07T06:00:55;10.40;1.00
318;DHT22;146;53.448;10.228;2023-05-07T06:03:25;10.50;1.00
318;DHT22;146;53.448;10.228;2023-05-07T06:05:51;10.50;1.00
318;DHT22;146;53.448;10.228;2023-05-07T06:08:21;10.50;1.00
318;DHT22;146;53.448;10.228;2023-05-07T06:10:48;10.50;1.00
318;DHT22;146;53.448;10.228;2023-05-07T06:13:18;10.60;1.00
318;DHT22;146;53.448;10.228;2023-05-07T06:15:45;10.60;1.00
318;DHT22;146;53.448;10.228;2023-05-07T06:18:12;10.60;1.00
318;DHT22;146;53.448;10.228;2023-05-07T06:20:39;10.60;1.00
318;DHT22;146;53.448;10.228;2023-05-07T06:23:06;10.70;1.00
318;DHT22;146;53.448;10.228;2023-05-07T06:25:32;10.70;1.00
318;DHT22;146;53.448;10.228;2023-05-07T06:27:59;10.80;1.00
318;DHT22;146;53.448;10.228;2023-05-07T06:30:27;10.80;1.00
318;DHT22;146;53.448;10.228;2023-05-07T06:32:54;10.90;1.00
318;DHT22;146;53.448;10.228;2023-05-07T06:35:21;10.90;1.00
318;DHT22;146;53.448;10.228;2023-05-07T06:37:48;10.90;1.00
318;DHT22;146;53.448;10.228;2023-05-07T06:40:14;10.90;1.00
318;DHT22;146;53.448;10.228;2023-05-07T06:42:42;10.80;1.00
318;DHT22;146;53.448;10.228;2023-05-07T06:45:09;10.70;1.00
318;DHT22;146;53.448;10.228;2023-05-07T06:47:38;10.70;1.00
318;DHT22;146;53.448;10.228;2023-05-07T06:50:06;10.70;1.00
318;DHT22;146;53.448;10.228;2023-05-07T06:52:33;10.70;1.00
318;DHT22;146;53.448;10.228;2023-05-07T06:54:59;10.80;1.00
318;DHT22;146;53.448;10.228;2023-05-07T06:57:26;10.90;1.00
318;DHT22;146;53.448;10.228;2023-05-07T06:59:53;11.00;1.00
318;DHT22;146;53.448;10.228;2023-05-07T07:02:26;11.00;1.00
318;DHT22;146;53.448;10.228;2023-05-07T07:04:54;11.00;1.00
318;DHT22;146;53.448;10.228;2023-05-07T07:07:20;11.10;1.00
318;DHT22;146;53.448;10.228;2023-05-07T07:09:48;11.10;1.00
318;DHT22;146;53.448;10.228;2023-05-07T07:12:16;11.10;1.00
318;DHT22;146;53.448;10.228;2023-05-07T07:14:51;11.10;1.00
318;DHT22;146;53.448;10.228;2023-05-07T07:17:18;11.00;1.00
318;DHT22;146;53.448;10.228;2023-05-07T07:20:01;11.00;1.00
318;DHT22;146;53.448;10.228;2023-05-07T07:22:31;11.00;1.00
318;DHT22;146;53.448;10.228;2023-05-07T07:24:57;11.10;1.00
318;DHT22;146;53.448;10.228;2023-05-07T07:27:25;11.10;1.00
318;DHT22;146;53.448;10.228;2023-05-07T07:29:51;11.10;1.00
318;DHT22;146;53.448;10.228;2023-05-07T07:32:21;11.10;1.00
318;DHT22;146;53.448;10.228;2023-05-07T07:34:57;11.10;1.00
318;DHT22;146;53.448;10.228;2023-05-07T07:37:25;11.20;1.00
318;DHT22;146;53.448;10.228;2023-05-07T07:39:52;11.30;1.00
318;DHT22;146;53.448;10.228;2023-05-07T07:42:19;11.30;1.00
318;DHT22;146;53.448;10.228;2023-05-07T07:44:46;11.40;1.00
318;DHT22;146;53.448;10.228;2023-05-07T07:47:15;11.50;1.00
318;DHT22;146;53.448;10.228;2023-05-07T07:49:42;11.40;1.00
318;DHT22;146;53.448;10.228;2023-05-07T07:52:09;11.50;1.00
318;DHT22;146;53.448;10.228;2023-05-07T07:54:37;11.40;1.00
318;DHT22;146;53.448;10.228;2023-05-07T07:57:07;11.50;1.00
318;DHT22;146;53.448;10.228;2023-05-07T07:59:34;11.50;1.00
318;DHT22;146;53.448;10.228;2023-05-07T08:02:00;11.60;1.00
318;DHT22;146;53.448;10.228;2023-05-07T08:04:27;11.60;1.00
318;DHT22;146;53.448;10.228;2023-05-07T08:06:55;11.70;1.00
318;DHT22;146;53.448;10.228;2023-05-07T08:09:24;11.60;1.00
318;DHT22;146;53.448;10.228;2023-05-07T08:11:55;11.40;1.00
318;DHT22;146;53.448;10.228;2023-05-07T08:14:22;11.50;1.00
318;DHT22;146;53.448;10.228;2023-05-07T08:16:49;11.50;1.00
318;DHT22;146;53.448;10.228;2023-05-07T08:19:21;11.60;1.00
318;DHT22;146;53.448;10.228;2023-05-07T08:21:48;11.70;1.00
318;DHT22;146;53.448;10.228;2023-05-07T08:24:16;11.80;1.00
318;DHT22;146;53.448;10.228;2023-05-07T08:26:43;11.80;1.00
318;DHT22;146;53.448;10.228;2023-05-07T08:29:14;11.90;1.00
318;DHT22;146;53.448;10.228;2023-05-07T08:31:44;12.00;1.00
318;DHT22;146;53.448;10.228;2023-05-07T08:34:11;12.00;1.00
318;DHT22;146;53.448;10.228;2023-05-07T08:36:51;12.10;1.00
318;DHT22;146;53.448;10.228;2023-05-07T08:39:18;12.00;1.00
318;DHT22;146;53.448;10.228;2023-05-07T08:41:45;12.00;1.00
318;DHT22;146;53.448;10.228;2023-05-07T08:44:14;12.00;1.00
318;DHT22;146;53.448;10.228;2023-05-07T08:46:45;12.10;1.00
318;DHT22;146;53.448;10.228;2023-05-07T08:49:13;12.10;1.00
318;DHT22;146;53.448;10.228;2023-05-07T08:51:44;12.00;1.00
318;DHT22;146;53.448;10.228;2023-05-07T08:54:11;12.00;1.00
318;DHT22;146;53.448;10.228;2023-05-07T08:56:38;12.00;1.00
318;DHT22;146;53.448;10.228;2023-05-07T08:59:09;12.00;1.00
318;DHT22;146;53.448;10.228;2023-05-07T09:01:40;12.10;1.00
318;DHT22;146;53.448;10.228;2023-05-07T09:04:07;12.10;1.00
318;DHT22;146;53.448;10.228;2023-05-07T09:06:34;12.10;1.00
318;DHT22;146;53.448;10.228;2023-05-07T09:09:03;12.20;1.00
318;DHT22;146;53.448;10.228;2023-05-07T09:11:31;12.10;1.00
318;DHT22;146;53.448;10.228;2023-05-07T09:14:00;12.00;1.00
318;DHT22;146;53.448;10.228;2023-05-07T09:16:31;12.10;1.00
318;DHT22;146;53.448;10.228;2023-05-07T09:18:59;12.10;1.00
318;DHT22;146;53.448;10.228;2023-05-07T09:21:26;12.20;1.00
318;DHT22;146;53.448;10.228;2023-05-07T09:23:56;12.30;1.00
318;DHT22;146;53.448;10.228;2023-05-07T09:26:23;12.40;1.00
318;DHT22;146;53.448;10.228;2023-05-07T09:28:51;12.50;1.00
318;DHT22;146;53.448;10.228;2023-05-07T09:31:17;12.50;1.00
318;DHT22;146;53.448;10.228;2023-05-07T09:33:44;12.50;1.00
318;DHT22;146;53.448;10.228;2023-05-07T09:36:13;12.50;1.00
318;DHT22;146;53.448;10.228;2023-05-07T09:38:40;12.50;1.00
318;DHT22;146;53.448;10.228;2023-05-07T09:41:08;12.60;1.00
318;DHT22;146;53.448;10.228;2023-05-07T09:43:37;12.50;1.00
318;DHT22;146;53.448;10.228;2023-05-07T09:46:06;12.50;1.00
318;DHT22;146;53.448;10.228;2023-05-07T09:48:38;12.50;1.00
318;DHT22;146;53.448;10.228;2023-05-07T09:51:11;12.70;1.00
318;DHT22;146;53.448;10.228;2023-05-07T09:53:43;12.80;1.00
318;DHT22;146;53.448;10.228;2023-05-07T09:56:13;13.00;1.00
318;DHT22;146;53.448;10.228;2023-05-07T09:58:41;13.00;1.00
318;DHT22;146;53.448;10.228;2023-05-07T10:01:10;12.90;1.00
318;DHT22;146;53.448;10.228;2023-05-07T10:03:42;13.00;1.00
318;DHT22;146;53.448;10.228;2023-05-07T10:06:10;13.10;1.00
318;DHT22;146;53.448;10.228;2023-05-07T10:08:37;13.10;1.00
318;DHT22;146;53.448;10.228;2023-05-07T10:11:05;13.20;1.00
318;DHT22;146;53.448;10.228;2023-05-07T10:13:33;13.30;1.00
318;DHT22;146;53.448;10.228;2023-05-07T10:16:01;13.30;1.00
318;DHT22;146;53.448;10.228;2023-05-07T10:18:30;13.40;1.00
318;DHT22;146;53.448;10.228;2023-05-07T10:21:02;13.40;1.00
318;DHT22;146;53.448;10.228;2023-05-07T10:23:31;13.40;1.00
318;DHT22;146;53.448;10.228;2023-05-07T10:26:00;13.50;1.00
318;DHT22;146;53.448;10.228;2023-05-07T10:28:31;13.60;1.00
318;DHT22;146;53.448;10.228;2023-05-07T10:31:11;13.60;1.00
318;DHT22;146;53.448;10.228;2023-05-07T10:33:46;13.60;1.00
318;DHT22;146;53.448;10.228;2023-05-07T10:36:17;13.70;1.00
318;DHT22;146;53.448;10.228;2023-05-07T10:38:45;13.70;1.00
318;DHT22;146;53.448;10.228;2023-05-07T10:41:12;13.70;1.00
318;DHT22;146;53.448;10.228;2023-05-07T10:43:45;13.60;1.00
318;DHT22;146;53.448;10.228;2023-05-07T10:46:15;13.60;1.00
318;DHT22;146;53.448;10.228;2023-05-07T10:49:10;13.70;1.00
318;DHT22;146;53.448;10.228;2023-05-07T10:51:44;13.70;1.00
318;DHT22;146;53.448;10.228;2023-05-07T10:54:21;13.70;1.00
318;DHT22;146;53.448;10.228;2023-05-07T10:56:49;13.70;1.00
318;DHT22;146;53.448;10.228;2023-05-07T10:59:36;13.80;1.00
318;DHT22;146;53.448;10.228;2023-05-07T11:02:16;13.90;1.00
318;DHT22;146;53.448;10.228;2023-05-07T11:04:43;14.00;1.00
318;DHT22;146;53.448;10.228;2023-05-07T11:07:33;14.00;1.00
318;DHT22;146;53.448;10.228;2023-05-07T11:10:04;14.10;1.00
318;DHT22;146;53.448;10.228;2023-05-07T11:12:53;14.20;1.00
318;DHT22;146;53.448;10.228;2023-05-07T11:15:43;14.10;1.00
318;DHT22;146;53.448;10.228;2023-05-07T11:18:12;14.20;1.00
318;DHT22;146;53.448;10.228;2023-05-07T11:20:53;14.30;1.00
318;DHT22;146;53.448;10.228;2023-05-07T11:23:55;14.40;1.00
318;DHT22;146;53.448;10.228;2023-05-07T11:26:22;14.40;1.00
318;DHT22;146;53.448;10.228;2023-05-07T11:28:51;14.40;1.00
318;DHT22;146;53.448;10.228;2023-05-07T11:31:25;14.40;1.00
318;DHT22;146;53.448;10.228;2023-05-07T11:33:54;14.60;1.00
318;DHT22;146;53.448;10.228;2023-05-07T11:36:23;14.60;1.00
318;DHT22;146;53.448;10.228;2023-05-07T11:38:54;14.60;1.00
318;DHT22;146;53.448;10.228;2023-05-07T11:41:21;14.50;1.00
318;DHT22;146;53.448;10.228;2023-05-07T11:43:58;14.50;1.00
318;DHT22;146;53.448;10.228;2023-05-07T11:46:27;14.60;1.00
318;DHT22;146;53.448;10.228;2023-05-07T11:48:54;14.80;1.00
318;DHT22;146;53.448;10.228;2023-05-07T11:51:23;14.70;1.00
318;DHT22;146;53.448;10.228;2023-05-07T11:53:51;14.70;1.00
318;DHT22;146;53.448;10.228;2023-05-07T11:56:18;14.70;1.00
318;DHT22;146;53.448;10.228;2023-05-07T11:58:46;14.80;1.00
318;DHT22;146;53.448;10.228;2023-05-07T12:01:14;14.90;1.00
318;DHT22;146;53.448;10.228;2023-05-07T12:03:46;15.10;1.00
318;DHT22;146;53.448;10.228;2023-05-07T12:06:19;15.20;1.00
318;DHT22;146;53.448;10.228;2023-05-07T12:08:46;15.20;1.00
318;DHT22;146;53.448;10.228;2023-05-07T12:11:21;15.20;1.00
318;DHT22;146;53.448;10.228;2023-05-07T12:13:49;15.10;1.00
318;DHT22;146;53.448;10.228;2023-05-07T12:16:16;15.10;1.00
318;DHT22;146;53.448;10.228;2023-05-07T12:18:49;15.00;1.00
318;DHT22;146;53.448;10.228;2023-05-07T12:21:18;15.00;1.00
318;DHT22;146;53.448;10.228;2023-05-07T12:23:45;15.00;1.00
318;DHT22;146;53.448;10.228;2023-05-07T12:26:15;15.10;1.00
318;DHT22;146;53.448;10.228;2023-05-07T12:28:41;15.20;1.00
318;DHT22;146;53.448;10.228;2023-05-07T12:31:08;15.30;1.00
318;DHT22;146;53.448;10.228;2023-05-07T12:33:36;15.50;1.00
318;DHT22;146;53.448;10.228;2023-05-07T12:36:06;15.60;1.00
318;DHT22;146;53.448;10.228;2023-05-07T12:38:38;15.70;1.00
318;DHT22;146;53.448;10.228;2023-05-07T12:41:07;15.80;1.00
318;DHT22;146;53.448;10.228;2023-05-07T12:43:34;15.90;1.00
318;DHT22;146;53.448;10.228;2023-05-07T12:46:03;15.90;1.00
318;DHT22;146;53.448;10.228;2023-05-07T12:48:30;16.00;1.00
318;DHT22;146;53.448;10.228;2023-05-07T12:51:01;16.00;1.00
318;DHT22;146;53.448;10.228;2023-05-07T12:53:30;16.10;1.00
318;DHT22;146;53.448;10.228;2023-05-07T12:55:58;16.10;1.00
318;DHT22;146;53.448;10.228;2023-05-07T12:58:28;16.10;1.00
318;DHT22;146;53.448;10.228;2023-05-07T13:00:56;16.10;1.00
318;DHT22;146;53.448;10.228;2023-05-07T13:03:28;16.10;1.00
318;DHT22;146;53.448;10.228;2023-05-07T13:08:27;16.10;1.00
318;DHT22;146;53.448;10.228;2023-05-07T13:11:07;16.10;1.00
318;DHT22;146;53.448;10.228;2023-05-07T13:13:36;16.20;1.00
318;DHT22;146;53.448;10.228;2023-05-07T13:16:04;16.30;1.00
318;DHT22;146;53.448;10.228;2023-05-07T13:18:32;16.30;1.00
318;DHT22;146;53.448;10.228;2023-05-07T13:21:00;16.30;1.00
318;DHT22;146;53.448;10.228;2023-05-07T13:23:29;16.30;1.00
318;DHT22;146;53.448;10.228;2023-05-07T13:25:56;16.40;1.00
318;DHT22;146;53.448;10.228;2023-05-07T13:28:27;16.50;1.00
318;DHT22;146;53.448;10.228;2023-05-07T13:30:54;16.50;1.00
318;DHT22;146;53.448;10.228;2023-05-07T13:33:21;16.50;1.00
318;DHT22;146;53.448;10.228;2023-05-07T13:35:48;16.60;1.00
318;DHT22;146;53.448;10.228;2023-05-07T13:38:17;16.60;1.00
318;DHT22;146;53.448;10.228;2023-05-07T13:40:47;16.60;1.00
318;DHT22;146;53.448;10.228;2023-05-07T13:43:14;16.50;1.00
318;DHT22;146;53.448;10.228;2023-05-07T13:45:44;16.40;1.00
318;DHT22;146;53.448;10.228;2023-05-07T13:48:11;16.50;1.00
318;DHT22;146;53.448;10.228;2023-05-07T13:50:40;16.50;1.00
318;DHT22;146;53.448;10.228;2023-05-07T13:53:08;16.50;1.00
318;DHT22;146;53.448;10.228;2023-05-07T13:55:38;16.50;1.00
318;DHT22;146;53.448;10.228;2023-05-07T13:58:05;16.60;1.00
318;DHT22;146;53.448;10.228;2023-05-07T14:00:31;16.70;1.00
318;DHT22;146;53.448;10.228;2023-05-07T14:03:00;16.70;1.00
318;DHT22;146;53.448;10.228;2023-05-07T14:05:26;16.70;1.00
318;DHT22;146;53.448;10.228;2023-05-07T14:07:54;16.70;1.00
318;DHT22;146;53.448;10.228;2023-05-07T14:10:22;16.70;1.00
318;DHT22;146;53.448;10.228;2023-05-07T14:12:54;16.60;1.00
318;DHT22;146;53.448;10.228;2023-05-07T14:15:23;16.60;1.00
318;DHT22;146;53.448;10.228;2023-05-07T14:17:50;16.50;1.00
318;DHT22;146;53.448;10.228;2023-05-07T14:20:18;16.50;1.00
318;DHT22;146;53.448;10.228;2023-05-07T14:22:45;16.50;1.00
318;DHT22;146;53.448;10.228;2023-05-07T14:25:12;16.50;1.00
318;DHT22;146;53.448;10.228;2023-05-07T14:27:46;16.50;1.00
318;DHT22;146;53.448;10.228;2023-05-07T14:30:13;16.30;1.00
318;DHT22;146;53.448;10.228;2023-05-07T14:32:42;16.20;1.00
318;DHT22;146;53.448;10.228;2023-05-07T14:35:09;16.20;1.00
318;DHT22;146;53.448;10.228;2023-05-07T14:37:37;16.10;1.00
318;DHT22;146;53.448;10.228;2023-05-07T14:40:04;16.00;1.00
318;DHT22;146;53.448;10.228;2023-05-07T14:42:31;15.90;1.00
318;DHT22;146;53.448;10.228;2023-05-07T14:45:01;15.90;1.00
318;DHT22;146;53.448;10.228;2023-05-07T14:47:28;15.90;1.00
318;DHT22;146;53.448;10.228;2023-05-07T14:49:58;15.90;1.00
318;DHT22;146;53.448;10.228;2023-05-07T14:52:26;16.00;1.00
318;DHT22;146;53.448;10.228;2023-05-07T14:54:54;16.10;1.00
318;DHT22;146;53.448;10.228;2023-05-07T14:57:27;16.20;1.00
318;DHT22;146;53.448;10.228;2023-05-07T14:59:54;16.20;1.00
318;DHT22;146;53.448;10.228;2023-05-07T15:02:20;16.20;1.00
318;DHT22;146;53.448;10.228;2023-05-07T15:04:47;16.20;1.00
318;DHT22;146;53.448;10.228;2023-05-07T15:07:17;16.30;1.00
318;DHT22;146;53.448;10.228;2023-05-07T15:09:44;16.30;1.00
318;DHT22;146;53.448;10.228;2023-05-07T15:12:18;16.40;1.00
318;DHT22;146;53.448;10.228;2023-05-07T15:14:45;16.40;1.00
318;DHT22;146;53.448;10.228;2023-05-07T15:17:18;16.60;1.00
318;DHT22;146;53.448;10.228;2023-05-07T15:19:45;16.60;1.00
318;DHT22;146;53.448;10.228;2023-05-07T15:22:12;16.60;1.00
318;DHT22;146;53.448;10.228;2023-05-07T15:24:39;16.60;1.00
318;DHT22;146;53.448;10.228;2023-05-07T15:27:10;16.60;1.00
318;DHT22;146;53.448;10.228;2023-05-07T15:29:38;16.60;1.00
318;DHT22;146;53.448;10.228;2023-05-07T15:32:05;16.60;1.00
318;DHT22;146;53.448;10.228;2023-05-07T15:34:32;16.60;1.00
318;DHT22;146;53.448;10.228;2023-05-07T15:36:59;16.60;1.00
318;DHT22;146;53.448;10.228;2023-05-07T15:39:25;16.60;1.00
318;DHT22;146;53.448;10.228;2023-05-07T15:41:52;16.50;1.00
318;DHT22;146;53.448;10.228;2023-05-07T15:44:19;16.50;1.00
318;DHT22;146;53.448;10.228;2023-05-07T15:46:50;16.50;1.00
318;DHT22;146;53.448;10.228;2023-05-07T15:49:16;16.40;1.00
318;DHT22;146;53.448;10.228;2023-05-07T15:51:45;16.40;1.00
318;DHT22;146;53.448;10.228;2023-05-07T15:54:14;16.40;1.00
318;DHT22;146;53.448;10.228;2023-05-07T15:56:42;16.40;1.00
318;DHT22;146;53.448;10.228;2023-05-07T15:59:09;16.40;1.00
318;DHT22;146;53.448;10.228;2023-05-07T16:01:37;16.40;1.00
318;DHT22;146;53.448;10.228;2023-05-07T16:04:07;16.50;1.00
318;DHT22;146;53.448;10.228;2023-05-07T16:06:34;16.50;1.00
318;DHT22;146;53.448;10.228;2023-05-07T16:09:00;16.50;1.00
318;DHT22;146;53.448;10.228;2023-05-07T16:11:27;16.60;1.00
318;DHT22;146;53.448;10.228;2023-05-07T16:13:55;16.60;1.00
318;DHT22;146;53.448;10.228;2023-05-07T16:16:28;16.70;1.00
318;DHT22;146;53.448;10.228;2023-05-07T16:18:58;16.80;1.00
318;DHT22;146;53.448;10.228;2023-05-07T16:21:26;16.80;1.00
318;DHT22;146;53.448;10.228;2023-05-07T16:23:53;16.80;1.00
318;DHT22;146;53.448;10.228;2023-05-07T16:26:20;16.90;1.00
318;DHT22;146;53.448;10.228;2023-05-07T16:28:47;16.90;1.00
318;DHT22;146;53.448;10.228;2023-05-07T16:31:14;16.90;1.00
318;DHT22;146;53.448;10.228;2023-05-07T16:33:40;16.90;1.00
318;DHT22;146;53.448;10.228;2023-05-07T16:36:07;17.00;1.00
318;DHT22;146;53.448;10.228;2023-05-07T16:38:35;17.00;1.00
318;DHT22;146;53.448;10.228;2023-05-07T16:41:03;17.00;1.00
318;DHT22;146;53.448;10.228;2023-05-07T16:43:30;16.90;1.00
318;DHT22;146;53.448;10.228;2023-05-07T16:45:57;16.80;1.00
318;DHT22;146;53.448;10.228;2023-05-07T16:48:24;16.80;1.00